Time;durP1;ratioP1;P1;durP2;ratioP2;P2;SDS_P1;SDS_P2;PMS_P1;PMS_P2;Temp;Humidity;BMP_temperature;BMP_pressure;BME280_temperature;BME280_humidity;BME280_pressure;Samples;Min_cycle;Max_cycle;Signal;HPM_P1;HPM_P2
2021/03/18 00:01:30;;;;;;;7.75;6.57;;;6.40;89.10;;;;;;4974799;28;20580;-78
2021/03/18 00:03:57;;;;;;;10.50;6.53;;;6.40;87.80;;;;;;4974972;28;20358;-79
2021/03/18 00:06:23;;;;;;;8.57;5.97;;;6.40;87.60;;;;;;4974101;28;20039;-79
2021/03/18 00:08:50;;;;;;;7.57;6.22;;;6.50;86.90;;;;;;4974449;28;20041;-79
2021/03/18 00:11:19;;;;;;;11.20;6.32;;;6.60;86.80;;;;;;4974421;28;20067;-80
2021/03/18 00:13:45;;;;;;;7.97;6.25;;;6.50;86.10;;;;;;4972930;28;20030;-80
2021/03/18 00:16:12;;;;;;;7.75;6.10;;;6.50;85.70;;;;;;4974200;28;20034;-80
2021/03/18 00:18:45;;;;;;;7.72;6.00;;;6.60;85.20;;;;;;4974302;28;20045;-77
2021/03/18 00:21:11;;;;;;;7.10;5.68;;;6.60;85.20;;;;;;4974284;28;20099;-81
2021/03/18 00:23:37;;;;;;;8.25;6.18;;;6.60;84.90;;;;;;4973614;28;20026;-81
2021/03/18 00:26:04;;;;;;;7.40;6.07;;;6.60;84.70;;;;;;4973179;28;20385;-81
2021/03/18 00:28:31;;;;;;;6.75;5.07;;;6.60;84.90;;;;;;4973910;28;20033;-79
2021/03/18 00:30:57;;;;;;;7.65;6.28;;;6.10;87.00;;;;;;4973830;28;20035;-80
2021/03/18 00:33:24;;;;;;;8.23;6.32;;;6.00;89.10;;;;;;4972195;28;20018;-81
2021/03/18 00:35:49;;;;;;;7.82;6.30;;;5.90;90.60;;;;;;4973788;28;20038;-79
2021/03/18 00:38:15;;;;;;;9.07;6.50;;;6.00;90.90;;;;;;4973739;28;20085;-81
2021/03/18 00:40:44;;;;;;;8.15;6.88;;;6.30;90.10;;;;;;4974176;28;20381;-80
2021/03/18 00:43:13;;;;;;;7.68;6.28;;;6.30;90.20;;;;;;4958720;28;20059;-80
2021/03/18 00:45:41;;;;;;;7.97;5.93;;;6.50;90.10;;;;;;4954028;29;20061;-79
2021/03/18 00:48:09;;;;;;;9.30;6.93;;;6.50;89.00;;;;;;4954187;29;20027;-78
2021/03/18 00:50:51;;;;;;;9.25;6.57;;;6.50;88.90;;;;;;4964652;28;20054;-80
2021/03/18 00:53:20;;;;;;;10.50;6.60;;;6.20;90.50;;;;;;4973472;28;20035;-81
2021/03/18 00:55:46;;;;;;;7.88;6.63;;;5.90;91.30;;;;;;4973631;28;20358;-79
2021/03/18 00:58:12;;;;;;;8.82;6.00;;;6.10;91.20;;;;;;4974035;28;20033;-79
2021/03/18 01:00:45;;;;;;;11.02;6.65;;;6.30;90.50;;;;;;4972579;28;20030;-80
2021/03/18 01:03:11;;;;;;;8.55;6.60;;;6.40;90.40;;;;;;4973579;28;20376;-78
2021/03/18 01:05:40;;;;;;;9.75;6.82;;;6.40;90.30;;;;;;4973687;28;20042;-79
2021/03/18 01:08:09;;;;;;;7.63;5.80;;;6.50;90.20;;;;;;4973663;28;20019;-80
2021/03/18 01:10:45;;;;;;;8.45;6.88;;;6.50;89.60;;;;;;4973766;28;20023;-81
2021/03/18 01:13:14;;;;;;;8.45;6.50;;;6.50;90.10;;;;;;4969704;28;20065;-79
2021/03/18 01:15:40;;;;;;;7.85;6.20;;;6.50;89.80;;;;;;4971645;28;20034;-82
2021/03/18 01:18:08;;;;;;;8.35;6.32;;;6.40;89.60;;;;;;4973749;28;20026;-81
2021/03/18 01:20:34;;;;;;;9.68;6.60;;;6.00;91.20;;;;;;4973894;28;20022;-77
2021/03/18 01:23:00;;;;;;;8.98;6.68;;;6.00;91.30;;;;;;4955959;28;20030;-77
2021/03/18 01:25:26;;;;;;;8.88;6.13;;;5.90;91.50;;;;;;4973306;28;20381;-78
2021/03/18 01:27:52;;;;;;;7.88;6.35;;;5.80;92.20;;;;;;4973712;28;20469;-77
2021/03/18 01:30:21;;;;;;;8.05;6.38;;;5.80;92.10;;;;;;4973664;28;20091;-78
2021/03/18 01:32:47;;;;;;;8.10;6.50;;;5.80;91.80;;;;;;4972926;28;20077;-78
2021/03/18 01:35:16;;;;;;;8.35;6.28;;;5.70;92.00;;;;;;4973215;28;20366;-77
2021/03/18 01:37:43;;;;;;;7.70;6.28;;;5.80;91.70;;;;;;4973550;28;20027;-79
2021/03/18 01:40:11;;;;;;;12.02;6.60;;;5.90;92.00;;;;;;4973271;28;20058;-76
2021/03/18 01:42:38;;;;;;;8.68;6.35;;;6.00;91.90;;;;;;4973410;28;20421;-77
2021/03/18 01:45:06;;;;;;;8.45;6.40;;;5.90;92.00;;;;;;4972874;28;20043;-79
2021/03/18 01:47:33;;;;;;;8.30;6.68;;;5.90;91.90;;;;;;4973722;28;20027;-76
2021/03/18 01:49:59;;;;;;;8.07;6.60;;;6.00;91.90;;;;;;4972854;28;20365;-76
2021/03/18 01:52:24;;;;;;;8.50;6.50;;;6.10;91.70;;;;;;4973310;28;20523;-79
2021/03/18 01:54:50;;;;;;;8.10;6.28;;;6.10;91.50;;;;;;4955951;28;20023;-78
2021/03/18 01:57:16;;;;;;;7.93;6.47;;;5.90;91.50;;;;;;4973415;28;20034;-76
2021/03/18 01:59:42;;;;;;;8.05;6.32;;;5.80;91.90;;;;;;4973173;28;20027;-76
2021/03/18 02:02:08;;;;;;;8.02;6.20;;;5.90;92.60;;;;;;4956396;28;20077;-77
2021/03/18 02:04:34;;;;;;;7.22;6.22;;;5.90;92.30;;;;;;4973385;28;20030;-78
2021/03/18 02:07:00;;;;;;;7.20;6.05;;;5.70;92.60;;;;;;4956427;28;20045;-78
2021/03/18 02:09:26;;;;;;;8.48;6.85;;;5.80;93.00;;;;;;4973517;28;20082;-77
2021/03/18 02:11:53;;;;;;;8.15;6.20;;;5.80;92.90;;;;;;4973703;28;20031;-75
2021/03/18 02:14:19;;;;;;;9.65;7.00;;;5.60;93.50;;;;;;4972814;28;20089;-78
2021/03/18 02:16:47;;;;;;;9.23;6.43;;;5.50;94.20;;;;;;4973573;28;20027;-77
2021/03/18 02:19:47;;;;;;;8.88;6.72;;;5.40;94.70;;;;;;4973208;28;20381;-77
2021/03/18 02:22:54;;;;;;;9.50;7.25;;;5.40;95.00;;;;;;4973603;28;20425;-79
2021/03/18 02:25:25;;;;;;;8.02;6.50;;;5.40;95.00;;;;;;4972893;28;20043;-77
2021/03/18 02:28:24;;;;;;;8.60;7.22;;;5.40;95.20;;;;;;4972559;28;20554;-78
2021/03/18 02:30:59;;;;;;;11.27;6.75;;;5.60;95.40;;;;;;4972379;28;20026;-75
2021/03/18 02:33:46;;;;;;;8.45;6.82;;;5.40;95.50;;;;;;4972182;28;20389;-74
2021/03/18 02:36:18;;;;;;;7.65;6.30;;;5.70;95.30;;;;;;4972549;28;20085;-79
2021/03/18 02:38:52;;;;;;;8.02;6.40;;;5.70;94.80;;;;;;4973176;28;20109;-75
2021/03/18 02:41:22;;;;;;;7.78;6.32;;;5.40;95.80;;;;;;4972998;28;20015;-76
2021/03/18 02:44:06;;;;;;;9.88;6.70;;;5.50;95.90;;;;;;4955441;28;20069;-78
2021/03/18 02:46:33;;;;;;;8.15;6.65;;;5.60;95.80;;;;;;4953418;28;20044;-78
2021/03/18 02:49:04;;;;;;;8.25;7.05;;;5.70;95.50;;;;;;4956947;29;20522;-77
2021/03/18 02:51:32;;;;;;;9.38;7.25;;;5.90;95.40;;;;;;4957463;28;20110;-77
2021/03/18 02:54:04;;;;;;;7.10;6.07;;;5.90;95.10;;;;;;4956770;29;20034;-80
2021/03/18 02:56:31;;;;;;;8.10;6.80;;;5.80;95.40;;;;;;4956875;29;20031;-78
2021/03/18 02:58:59;;;;;;;7.95;6.72;;;5.80;95.80;;;;;;4939372;29;20110;-79
2021/03/18 03:01:25;;;;;;;8.25;6.68;;;5.80;96.20;;;;;;4956725;29;20024;-78
2021/03/18 03:03:53;;;;;;;8.55;6.45;;;5.40;97.00;;;;;;4956908;29;20020;-77
2021/03/18 03:06:21;;;;;;;7.97;6.57;;;5.20;98.30;;;;;;4956481;29;20085;-76
2021/03/18 03:08:48;;;;;;;9.77;7.25;;;5.00;99.30;;;;;;4956772;29;20050;-78
2021/03/18 03:11:17;;;;;;;8.68;6.28;;;5.40;99.10;;;;;;4956918;28;20474;-76
2021/03/18 03:13:45;;;;;;;9.82;6.20;;;5.10;99.50;;;;;;4976004;28;20026;-78
2021/03/18 03:16:15;;;;;;;14.02;7.80;;;5.00;99.90;;;;;;4975841;28;20117;-78
2021/03/18 03:18:42;;;;;;;8.70;6.50;;;4.90;99.90;;;;;;4958007;28;20031;-76
2021/03/18 03:21:10;;;;;;;10.07;8.02;;;4.80;99.90;;;;;;4975421;28;20238;-78
2021/03/18 03:23:52;;;;;;;9.02;7.55;;;5.00;99.90;;;;;;4975379;28;20033;-77
2021/03/18 03:26:21;;;;;;;7.60;6.15;;;5.20;99.90;;;;;;4975329;28;20042;-78
2021/03/18 03:28:48;;;;;;;9.13;7.35;;;4.80;99.90;;;;;;4975208;28;20046;-75
2021/03/18 03:31:15;;;;;;;13.18;7.97;;;4.70;99.90;;;;;;4975929;28;20102;-78
2021/03/18 03:33:41;;;;;;;11.00;8.65;;;4.50;99.90;;;;;;4957973;28;20027;-78
2021/03/18 03:36:08;;;;;;;9.95;7.82;;;4.40;99.90;;;;;;4974399;28;20362;-77
2021/03/18 03:38:34;;;;;;;9.68;7.65;;;4.50;99.90;;;;;;4957081;28;20026;-80
2021/03/18 03:41:00;;;;;;;9.52;7.70;;;4.50;99.90;;;;;;4975342;28;20035;-80
2021/03/18 03:43:26;;;;;;;10.57;7.45;;;4.50;99.90;;;;;;4975504;28;20033;-78
2021/03/18 03:45:53;;;;;;;10.52;7.75;;;4.50;99.90;;;;;;4974620;28;20090;-78
2021/03/18 03:48:20;;;;;;;11.75;7.80;;;4.50;99.90;;;;;;4975077;28;20039;-78
2021/03/18 03:50:46;;;;;;;10.18;7.82;;;4.40;99.90;;;;;;4974697;28;20035;-77
2021/03/18 03:53:20;;;;;;;14.63;7.95;;;4.30;99.90;;;;;;4973716;28;20019;-79
2021/03/18 03:56:09;;;;;;;11.20;7.97;;;4.40;99.90;;;;;;4958206;28;20026;-79
2021/03/18 03:58:56;;;;;;;8.93;6.85;;;4.30;99.90;;;;;;4943381;28;20252;-78
2021/03/18 04:01:39;;;;;;;11.55;8.35;;;4.70;99.90;;;;;;4974973;28;20015;-77
2021/03/18 04:04:12;;;;;;;10.18;7.43;;;4.40;99.90;;;;;;4975058;28;20029;-76
2021/03/18 04:06:38;;;;;;;9.70;7.82;;;4.30;99.90;;;;;;4975138;28;20066;-78
2021/03/18 04:09:07;;;;;;;12.52;7.70;;;4.30;99.90;;;;;;4975266;28;20027;-77
2021/03/18 04:11:38;;;;;;;14.45;8.70;;;4.60;99.90;;;;;;4974905;28;20097;-77
2021/03/18 04:14:10;;;;;;;10.73;8.00;;;4.50;99.90;;;;;;4975022;28;20035;-78
2021/03/18 04:16:37;;;;;;;10.23;7.85;;;4.60;99.90;;;;;;4974635;28;20029;-78
2021/03/18 04:19:07;;;;;;;10.35;8.25;;;4.40;99.90;;;;;;4975107;28;20030;-79
2021/03/18 04:21:39;;;;;;;9.38;7.60;;;4.40;99.90;;;;;;4974814;28;20389;-78
2021/03/18 04:24:07;;;;;;;9.93;7.85;;;4.70;99.90;;;;;;4974922;28;20077;-79
2021/03/18 04:26:35;;;;;;;10.18;7.88;;;4.70;99.90;;;;;;4974188;28;20091;-76
2021/03/18 04:29:03;;;;;;;11.07;8.50;;;4.80;99.90;;;;;;4956888;28;20027;-78
2021/03/18 04:31:30;;;;;;;11.85;8.35;;;4.80;99.90;;;;;;4973819;28;20039;-77
2021/03/18 04:33:58;;;;;;;12.73;8.50;;;4.70;99.90;;;;;;4975080;28;20023;-77
2021/03/18 04:36:23;;;;;;;10.27;8.10;;;4.60;99.90;;;;;;4974381;28;20042;-79
2021/03/18 04:38:50;;;;;;;11.32;7.93;;;4.60;99.90;;;;;;4974877;28;20023;-78
2021/03/18 04:41:17;;;;;;;10.88;7.18;;;4.60;99.90;;;;;;4973625;28;20023;-77
2021/03/18 04:43:43;;;;;;;8.93;7.22;;;4.70;99.90;;;;;;4960007;28;20102;-77
2021/03/18 04:46:09;;;;;;;10.68;7.47;;;4.70;99.90;;;;;;4953085;29;20118;-76
2021/03/18 04:48:38;;;;;;;9.65;7.72;;;4.30;99.90;;;;;;4955028;29;20098;-76
2021/03/18 04:51:09;;;;;;;10.57;7.13;;;3.80;99.90;;;;;;4954668;28;20046;-76
2021/03/18 04:53:36;;;;;;;11.43;7.68;;;3.50;99.90;;;;;;4954340;29;20106;-77
2021/03/18 04:56:06;;;;;;;11.65;8.30;;;3.40;99.90;;;;;;4954500;29;20062;-78
2021/03/18 04:58:33;;;;;;;;;;;3.60;99.90;;;;;;4954869;29;20437;-78
2021/03/18 05:01:00;;;;;;;9.38;7.45;;;4.00;99.90;;;;;;4954781;29;19910;-75
2021/03/18 05:03:27;;;;;;;10.52;7.57;;;4.10;99.90;;;;;;4954962;29;20024;-79
2021/03/18 05:05:58;;;;;;;12.20;7.95;;;4.20;99.90;;;;;;4954011;29;20054;-77
2021/03/18 05:08:24;;;;;;;11.57;8.68;;;4.30;99.90;;;;;;4954726;29;20500;-78
2021/03/18 05:10:51;;;;;;;12.60;9.20;;;4.30;99.90;;;;;;4954064;28;20028;-76
2021/03/18 05:13:17;;;;;;;15.85;10.23;;;4.40;99.90;;;;;;4962994;28;20019;-76
2021/03/18 05:15:44;;;;;;;13.10;9.77;;;4.50;99.90;;;;;;4974191;28;20444;-78
2021/03/18 05:18:15;;;;;;;14.98;9.98;;;4.40;99.90;;;;;;4974053;28;20400;-78
2021/03/18 05:20:44;;;;;;;13.02;9.63;;;4.20;99.90;;;;;;4974170;28;20111;-77
2021/03/18 05:23:11;;;;;;;13.32;9.18;;;4.10;99.90;;;;;;4956115;28;20042;-77
2021/03/18 05:25:38;;;;;;;12.90;8.95;;;3.80;99.90;;;;;;4973898;28;20037;-79
2021/03/18 05:28:05;;;;;;;14.05;8.77;;;4.00;99.90;;;;;;4973285;28;20023;-79
2021/03/18 05:30:32;;;;;;;13.32;8.60;;;4.20;99.90;;;;;;4973481;28;20084;-80
2021/03/18 05:33:03;;;;;;;11.35;8.70;;;4.30;99.90;;;;;;4956067;28;20074;-77
2021/03/18 05:35:29;;;;;;;14.93;8.70;;;4.10;99.90;;;;;;4973952;28;20188;-80
2021/03/18 05:37:55;;;;;;;12.30;8.35;;;3.90;99.90;;;;;;4973376;28;20046;-76
2021/03/18 05:40:21;;;;;;;11.23;8.23;;;4.20;99.90;;;;;;4956817;28;20037;-77
2021/03/18 05:42:48;;;;;;;11.45;8.82;;;4.30;99.90;;;;;;4973374;28;20015;-77
2021/03/18 05:45:15;;;;;;;14.70;9.75;;;4.40;99.90;;;;;;4973009;28;20129;-79
2021/03/18 05:47:42;;;;;;;14.65;9.73;;;4.60;99.90;;;;;;4955203;28;20033;-78
2021/03/18 05:50:12;;;;;;;14.85;9.65;;;4.60;99.90;;;;;;4973146;28;20085;-78
2021/03/18 05:52:38;;;;;;;;;;;4.80;99.90;;;;;;4973414;28;20405;-77
2021/03/18 05:55:05;;;;;;;15.07;8.25;;;4.80;99.90;;;;;;4973027;28;19976;-76
2021/03/18 05:57:33;;;;;;;25.33;10.32;;;4.80;99.90;;;;;;4972689;28;20062;-79
2021/03/18 06:00:00;;;;;;;12.43;9.23;;;4.50;99.90;;;;;;4973492;28;20400;-78
2021/03/18 06:02:26;;;;;;;12.38;8.75;;;4.20;99.90;;;;;;4973407;28;20026;-81
2021/03/18 06:04:52;;;;;;;13.00;8.68;;;4.60;99.90;;;;;;4973380;28;20404;-80
2021/03/18 06:07:18;;;;;;;11.82;8.52;;;4.80;99.90;;;;;;4973078;28;20527;-82
2021/03/18 06:09:44;;;;;;;12.73;9.80;;;5.10;99.90;;;;;;4973439;28;20493;-83
2021/03/18 06:12:10;;;;;;;14.90;9.70;;;5.20;99.90;;;;;;4972343;28;20031;-80
2021/03/18 06:14:36;;;;;;;13.25;9.13;;;5.30;99.90;;;;;;4973466;28;20029;-81
2021/03/18 06:17:02;;;;;;;14.23;9.65;;;5.50;99.70;;;;;;4972521;28;20023;-78
2021/03/18 06:19:28;;;;;;;17.75;12.88;;;5.60;99.70;;;;;;4972852;28;20379;-78
2021/03/18 06:21:56;;;;;;;42.25;23.70;;;5.70;99.90;;;;;;4972864;28;20549;-77
2021/03/18 06:24:27;;;;;;;54.47;31.23;;;5.80;99.50;;;;;;4976397;28;20027;-79
2021/03/18 06:26:54;;;;;;;21.65;14.25;;;6.10;99.80;;;;;;4975968;28;20035;-77
2021/03/18 06:29:27;;;;;;;61.10;33.13;;;6.00;98.90;;;;;;4975577;28;20105;-77
2021/03/18 06:31:53;;;;;;;70.30;36.00;;;6.40;99.90;;;;;;4972620;28;20030;-78
2021/03/18 06:34:51;;;;;;;54.72;31.90;;;7.00;97.60;;;;;;4958113;28;20046;-78
2021/03/18 06:37:37;;;;;;;16.70;11.93;;;6.90;96.50;;;;;;4955970;29;20020;-79
2021/03/18 06:40:05;;;;;;;10.82;8.50;;;7.00;94.70;;;;;;4955136;29;20030;-77
2021/03/18 06:42:38;;;;;;;13.07;7.45;;;6.90;94.90;;;;;;4956587;28;20035;-77
2021/03/18 06:45:11;;;;;;;10.40;8.02;;;6.60;95.00;;;;;;4975238;28;20097;-77
2021/03/18 06:47:40;;;;;;;13.90;8.82;;;6.80;95.30;;;;;;4957128;28;20034;-75
2021/03/18 06:50:07;;;;;;;11.20;9.10;;;6.80;94.80;;;;;;4973355;28;20159;-76
2021/03/18 06:52:37;;;;;;;12.60;8.50;;;6.90;95.30;;;;;;4973927;28;20030;-75
2021/03/18 06:55:10;;;;;;;12.52;9.02;;;7.00;94.70;;;;;;4975382;28;20023;-76
2021/03/18 06:57:37;;;;;;;13.10;8.98;;;7.00;94.50;;;;;;4975021;28;20069;-76
2021/03/18 07:00:07;;;;;;;13.70;9.32;;;7.00;94.10;;;;;;4955263;28;20118;-76
2021/03/18 07:02:41;;;;;;;12.30;9.07;;;7.30;93.80;;;;;;4965170;28;20074;-75
2021/03/18 07:05:17;;;;;;;15.68;8.98;;;7.30;93.10;;;;;;4966641;28;20019;-78
2021/03/18 07:07:44;;;;;;;15.30;9.23;;;7.20;92.30;;;;;;4970671;28;20081;-75
2021/03/18 07:10:10;;;;;;;15.32;9.73;;;7.20;92.90;;;;;;4974234;28;20532;-77
2021/03/18 07:12:36;;;;;;;18.50;11.95;;;7.20;93.50;;;;;;4973605;28;20023;-79
2021/03/18 07:15:16;;;;;;;21.20;15.52;;;7.40;94.80;;;;;;4973249;28;20362;-76
2021/03/18 07:17:42;;;;;;;17.17;9.70;;;7.70;91.60;;;;;;4971523;28;20134;-74
2021/03/18 07:20:12;;;;;;;12.77;8.32;;;7.00;92.90;;;;;;4972851;28;20611;-78
2021/03/18 07:22:57;;;;;;;13.45;9.35;;;7.30;92.30;;;;;;4954965;28;20029;-76
2021/03/18 07:25:27;;;;;;;15.02;10.18;;;7.70;91.80;;;;;;4973604;28;20051;-78
2021/03/18 07:27:59;;;;;;;11.30;9.13;;;7.90;91.30;;;;;;4954977;28;20131;-76
2021/03/18 07:30:31;;;;;;;15.13;9.88;;;8.10;90.60;;;;;;4971768;28;20025;-78
2021/03/18 07:32:58;;;;;;;13.23;10.05;;;7.90;89.20;;;;;;4969505;28;20086;-77
2021/03/18 07:35:25;;;;;;;18.02;9.65;;;8.10;89.10;;;;;;4965631;28;20031;-76
2021/03/18 07:37:52;;;;;;;15.43;10.82;;;8.30;87.40;;;;;;4965424;28;20034;-77
2021/03/18 07:40:18;;;;;;;11.85;9.15;;;8.30;86.10;;;;;;4970665;28;20050;-76
2021/03/18 07:42:44;;;;;;;12.20;8.95;;;7.90;83.60;;;;;;4966452;28;20553;-77
2021/03/18 07:45:11;;;;;;;12.95;8.90;;;7.70;85.90;;;;;;4952693;28;20051;-76
2021/03/18 07:47:37;;;;;;;12.52;8.30;;;8.10;85.20;;;;;;4937128;29;20512;-77
2021/03/18 07:50:08;;;;;;;13.43;9.18;;;8.30;84.20;;;;;;4954587;29;20448;-77
2021/03/18 07:52:38;;;;;;;11.80;8.45;;;8.50;83.40;;;;;;4954376;28;20023;-76
2021/03/18 07:55:06;;;;;;;13.40;10.02;;;8.60;82.10;;;;;;4956136;28;20024;-76
2021/03/18 07:57:50;;;;;;;15.00;9.73;;;8.40;83.80;;;;;;4974100;28;20384;-75
2021/03/18 08:00:23;;;;;;;15.02;10.73;;;7.90;87.60;;;;;;4971855;28;20042;-76
2021/03/18 08:02:50;;;;;;;14.30;10.88;;;8.00;87.80;;;;;;4937127;29;20031;-76
2021/03/18 08:05:36;;;;;;;12.68;9.25;;;8.30;86.20;;;;;;4954327;28;20477;-77
2021/03/18 08:08:04;;;;;;;13.48;9.05;;;8.60;83.90;;;;;;4954455;29;20071;-76
2021/03/18 08:10:32;;;;;;;13.32;8.68;;;8.90;82.30;;;;;;4954127;29;20044;-77
2021/03/18 08:13:06;;;;;;;12.68;8.82;;;9.00;80.80;;;;;;4960183;28;20023;-76
2021/03/18 08:15:40;;;;;;;12.68;9.32;;;9.30;78.80;;;;;;4965562;28;20409;-77
2021/03/18 08:18:15;;;;;;;15.55;9.02;;;9.00;82.00;;;;;;4961173;28;20090;-76
2021/03/18 08:20:41;;;;;;;14.98;9.55;;;9.00;82.20;;;;;;4967401;28;20424;-76
2021/03/18 08:23:28;;;;;;;14.20;9.80;;;9.00;81.10;;;;;;4964248;28;20059;-75
2021/03/18 08:26:03;;;;;;;12.07;7.60;;;9.60;78.00;;;;;;4975359;28;20408;-77
2021/03/18 08:28:43;;;;;;;10.60;8.00;;;10.00;72.40;;;;;;4960954;28;20028;-77
2021/03/18 08:31:18;;;;;;;9.80;7.78;;;10.40;70.60;;;;;;4961405;28;20054;-77
2021/03/18 08:33:52;;;;;;;13.43;9.00;;;10.70;67.80;;;;;;4955637;28;20031;-76
2021/03/18 08:36:20;;;;;;;12.70;8.15;;;10.60;67.60;;;;;;4972422;28;20038;-77
2021/03/18 08:38:51;;;;;;;12.43;8.23;;;10.80;66.60;;;;;;4971785;28;20062;-78
2021/03/18 08:41:33;;;;;;;11.98;8.25;;;10.40;64.50;;;;;;4972052;28;20035;-77
2021/03/18 08:44:24;;;;;;;14.57;8.70;;;10.00;66.60;;;;;;4939409;28;20031;-78
2021/03/18 08:46:56;;;;;;;12.98;8.95;;;9.90;67.50;;;;;;4970623;28;20035;-73
2021/03/18 08:49:25;;;;;;;14.23;8.75;;;10.10;67.40;;;;;;4970488;28;20026;-76
2021/03/18 08:51:52;;;;;;;12.80;8.48;;;10.00;68.30;;;;;;4968728;28;20042;-76
2021/03/18 08:54:40;;;;;;;11.00;8.00;;;9.70;68.50;;;;;;4971827;28;20027;-77
2021/03/18 08:57:14;;;;;;;13.30;8.88;;;9.90;68.70;;;;;;4968173;28;20154;-77
2021/03/18 08:59:50;;;;;;;10.80;7.32;;;10.20;67.50;;;;;;4964408;28;20030;-76
2021/03/18 09:02:19;;;;;;;13.52;8.50;;;10.60;64.40;;;;;;4951277;28;20455;-76
2021/03/18 09:04:48;;;;;;;9.90;7.47;;;11.00;64.80;;;;;;4963671;28;20026;-77
2021/03/18 09:07:21;;;;;;;13.40;7.93;;;11.40;63.40;;;;;;4944765;28;20401;-76
2021/03/18 09:10:11;;;;;;;9.10;6.30;;;11.80;60.70;;;;;;4960016;28;20023;-76
2021/03/18 09:12:41;;;;;;;9.80;6.57;;;11.40;58.60;;;;;;4966071;28;20034;-76
2021/03/18 09:15:31;;;;;;;8.77;6.13;;;11.50;58.60;;;;;;4972077;28;20031;-76
2021/03/18 09:18:12;;;;;;;10.57;6.22;;;11.50;57.30;;;;;;4970875;28;20289;-78
2021/03/18 09:20:41;;;;;;;8.23;5.50;;;11.30;56.50;;;;;;4970092;28;20571;-75
2021/03/18 09:23:18;;;;;;;9.02;6.38;;;11.80;56.00;;;;;;4952251;28;20045;-78
2021/03/18 09:25:46;;;;;;;7.80;4.65;;;12.50;55.00;;;;;;4964213;28;20030;-75
2021/03/18 09:28:14;;;;;;;10.10;5.43;;;13.00;53.00;;;;;;4962957;28;20038;-77
2021/03/18 09:30:42;;;;;;;9.57;6.03;;;13.60;52.50;;;;;;4952785;29;20065;-79
2021/03/18 09:33:21;;;;;;;8.73;5.65;;;14.00;53.00;;;;;;4952465;28;20096;-79
2021/03/18 09:36:19;;;;;;;10.02;6.07;;;14.70;50.00;;;;;;4960011;28;20049;-79
2021/03/18 09:39:10;;;;;;;9.63;5.78;;;14.70;50.60;;;;;;4946542;28;20038;-78
2021/03/18 09:41:41;;;;;;;8.90;5.65;;;14.40;51.10;;;;;;4971004;28;20110;-78
2021/03/18 09:44:20;;;;;;;7.10;5.03;;;14.40;49.70;;;;;;4938744;28;20380;-78
2021/03/18 09:46:52;;;;;;;7.55;5.00;;;13.80;49.70;;;;;;4965902;28;20455;-78
2021/03/18 09:49:31;;;;;;;9.70;6.30;;;13.30;48.60;;;;;;4954115;28;20125;-79
2021/03/18 09:51:59;;;;;;;9.93;4.67;;;13.50;49.90;;;;;;4971838;28;20033;-78
2021/03/18 09:54:27;;;;;;;8.43;5.40;;;13.10;48.50;;;;;;4955059;28;20038;-79
2021/03/18 09:56:57;;;;;;;7.88;5.03;;;12.60;51.60;;;;;;4946602;28;20046;-78
2021/03/18 09:59:24;;;;;;;7.20;5.03;;;12.40;50.00;;;;;;4956280;29;20046;-77
2021/03/18 10:01:51;;;;;;;9.60;4.93;;;11.80;49.70;;;;;;4939548;29;20039;-77
2021/03/18 10:04:19;;;;;;;8.48;5.00;;;11.40;50.10;;;;;;4947737;28;20127;-76
2021/03/18 10:06:52;;;;;;;6.97;5.03;;;11.40;50.90;;;;;;4960013;28;20166;-78
2021/03/18 10:09:33;;;;;;;9.20;5.90;;;11.60;51.30;;;;;;4970740;28;20030;-78
2021/03/18 10:12:05;;;;;;;7.80;5.55;;;11.60;50.10;;;;;;4958440;28;20062;-79
2021/03/18 10:14:54;;;;;;;7.05;4.80;;;11.70;50.80;;;;;;4965692;28;20698;-79
2021/03/18 10:17:27;;;;;;;8.25;5.10;;;11.70;50.60;;;;;;4958575;28;20717;-76
2021/03/18 10:20:08;;;;;;;8.65;5.00;;;11.60;51.00;;;;;;4968896;28;20034;-79
2021/03/18 10:22:37;;;;;;;10.90;4.75;;;11.70;51.60;;;;;;4972111;28;20031;-77
2021/03/18 10:25:12;;;;;;;7.20;5.00;;;11.40;52.20;;;;;;4965008;28;20482;-80
2021/03/18 10:27:44;;;;;;;11.40;4.97;;;11.40;53.40;;;;;;4966911;28;20269;-76
2021/03/18 10:30:22;;;;;;;7.15;4.80;;;11.30;51.90;;;;;;4966103;28;20019;-79
2021/03/18 10:33:03;;;;;;;8.80;4.95;;;11.50;51.60;;;;;;4971267;28;20023;-83
2021/03/18 10:35:31;;;;;;;11.90;5.82;;;12.10;51.20;;;;;;4957128;28;20034;-76
2021/03/18 10:37:57;;;;;;;7.35;4.85;;;12.60;50.70;;;;;;4970354;28;20485;-77
2021/03/18 10:40:26;;;;;;;8.00;5.00;;;13.10;53.40;;;;;;4958787;28;20534;-77
2021/03/18 10:42:57;;;;;;;8.52;5.25;;;13.20;52.10;;;;;;4973717;28;20069;-77
2021/03/18 10:45:32;;;;;;;7.70;4.95;;;13.20;49.50;;;;;;4974761;28;20082;-78
2021/03/18 10:48:03;;;;;;;11.80;5.38;;;12.90;49.50;;;;;;4975331;28;20063;-78
2021/03/18 10:50:39;;;;;;;8.20;5.05;;;13.00;52.10;;;;;;4974337;28;20476;-78
2021/03/18 10:53:10;;;;;;;9.32;6.05;;;12.10;56.60;;;;;;4975020;28;20097;-79
2021/03/18 10:55:47;;;;;;;6.80;4.85;;;12.30;57.40;;;;;;4974603;28;20388;-78
2021/03/18 10:58:26;;;;;;;6.45;4.85;;;11.80;56.70;;;;;;4975126;28;20366;-78
2021/03/18 11:00:57;;;;;;;7.35;5.00;;;11.60;58.20;;;;;;4973632;28;20075;-78
2021/03/18 11:03:30;;;;;;;25.33;6.30;;;11.70;57.40;;;;;;4952045;28;20088;-78
2021/03/18 11:05:57;;;;;;;8.45;5.25;;;12.10;56.50;;;;;;4964265;28;20083;-77
2021/03/18 11:08:31;;;;;;;7.47;4.95;;;12.20;55.50;;;;;;4962493;28;20026;-76
2021/03/18 11:10:59;;;;;;;10.18;4.78;;;12.50;55.10;;;;;;4964362;28;20047;-75
2021/03/18 11:13:30;;;;;;;8.80;4.25;;;12.70;54.60;;;;;;4962252;28;20034;-77
2021/03/18 11:16:03;;;;;;;;;;;12.80;53.60;;;;;;4969211;28;20038;-76
2021/03/18 11:18:32;;;;;;;6.55;4.80;;;12.90;52.90;;;;;;4972976;28;20356;-77
2021/03/18 11:20:58;;;;;;;6.82;4.38;;;13.30;52.80;;;;;;4972449;28;20480;-76
2021/03/18 11:23:30;;;;;;;6.72;4.63;;;14.00;52.10;;;;;;4973220;28;20089;-77
2021/03/18 11:26:02;;;;;;;6.25;4.38;;;14.40;50.20;;;;;;4971653;28;20038;-75
2021/03/18 11:28:29;;;;;;;6.93;4.35;;;14.80;48.60;;;;;;4969499;28;20026;-76
2021/03/18 11:31:14;;;;;;;6.22;4.47;;;15.00;48.60;;;;;;4964863;28;20369;-77
2021/03/18 11:33:40;;;;;;;6.20;4.22;;;15.70;47.40;;;;;;4942637;28;20043;-79
2021/03/18 11:36:06;;;;;;;6.72;4.40;;;16.00;46.40;;;;;;4973129;28;20090;-76
2021/03/18 11:38:33;;;;;;;6.88;4.55;;;14.70;47.10;;;;;;4973557;28;20097;-77
2021/03/18 11:41:00;;;;;;;5.95;4.13;;;14.30;46.60;;;;;;4973919;28;20034;-79
2021/03/18 11:43:27;;;;;;;7.70;5.03;;;14.40;47.80;;;;;;4955521;28;20023;-78
2021/03/18 11:45:54;;;;;;;8.23;5.32;;;13.50;48.20;;;;;;4954085;29;20116;-75
2021/03/18 11:48:20;;;;;;;7.20;4.82;;;11.60;53.10;;;;;;4954147;29;20039;-76
2021/03/18 11:50:49;;;;;;;6.80;4.80;;;11.90;52.80;;;;;;4952027;28;20034;-75
2021/03/18 11:53:15;;;;;;;8.25;4.40;;;10.40;53.30;;;;;;4953134;29;20567;-77
2021/03/18 11:55:42;;;;;;;6.75;4.80;;;12.10;53.10;;;;;;4953396;29;20114;-75
2021/03/18 11:58:08;;;;;;;8.05;5.35;;;12.90;50.60;;;;;;4953708;29;20031;-79
2021/03/18 12:00:37;;;;;;;8.52;5.00;;;12.50;51.70;;;;;;4972121;28;20366;-75
2021/03/18 12:03:08;;;;;;;8.63;5.05;;;11.20;52.70;;;;;;4973020;28;20110;-78
2021/03/18 12:05:35;;;;;;;6.68;4.68;;;11.90;52.80;;;;;;4973224;28;20031;-79
2021/03/18 12:08:01;;;;;;;7.35;5.28;;;12.20;51.30;;;;;;4972182;28;20031;-80
2021/03/18 12:10:28;;;;;;;8.63;5.28;;;12.50;51.30;;;;;;4964620;28;20110;-79
2021/03/18 12:12:54;;;;;;;7.55;4.90;;;12.00;53.00;;;;;;4936966;29;20027;-75
2021/03/18 12:15:20;;;;;;;7.45;4.97;;;13.10;59.70;;;;;;4971155;28;20160;-75
2021/03/18 12:17:46;;;;;;;7.30;5.20;;;13.00;55.10;;;;;;4973091;28;20062;-78
2021/03/18 12:20:16;;;;;;;7.53;5.03;;;14.20;56.70;;;;;;4972416;28;20061;-78
2021/03/18 12:22:43;;;;;;;8.07;5.10;;;14.60;50.70;;;;;;4970129;28;20412;-77
2021/03/18 12:25:11;;;;;;;9.73;5.22;;;14.20;49.40;;;;;;4962126;28;20385;-78
2021/03/18 12:27:37;;;;;;;8.68;5.25;;;12.90;50.90;;;;;;4961782;28;20026;-78
2021/03/18 12:30:05;;;;;;;9.10;5.43;;;12.80;51.10;;;;;;4961024;28;20027;-79
2021/03/18 12:32:31;;;;;;;7.53;5.40;;;12.90;51.10;;;;;;4962874;28;20438;-78
2021/03/18 12:34:56;;;;;;;9.38;5.78;;;11.90;53.30;;;;;;4961727;28;20035;-79
2021/03/18 12:37:22;;;;;;;9.73;6.55;;;11.40;54.70;;;;;;4961805;28;20030;-80
2021/03/18 12:39:48;;;;;;;11.45;6.53;;;11.60;54.80;;;;;;4969414;28;20420;-77
2021/03/18 12:42:14;;;;;;;13.30;6.03;;;11.70;55.60;;;;;;4968438;28;20029;-77
2021/03/18 12:44:59;;;;;;;9.70;6.03;;;12.20;56.30;;;;;;4962223;28;20038;-79
2021/03/18 12:47:25;;;;;;;9.68;6.38;;;11.30;55.20;;;;;;4960104;28;20030;-79
2021/03/18 12:49:51;;;;;;;9.02;6.45;;;11.90;58.10;;;;;;4971293;28;20025;-77
2021/03/18 12:52:27;;;;;;;9.18;6.70;;;11.80;58.60;;;;;;5095731;27;20389;-76
2021/03/18 12:54:53;;;;;;;7.75;5.68;;;11.70;55.70;;;;;;5087224;28;20024;-77
2021/03/18 12:57:19;;;;;;;8.65;5.38;;;12.00;57.60;;;;;;5088188;28;20588;-75
2021/03/18 12:59:44;;;;;;;8.80;5.25;;;14.00;54.90;;;;;;5074314;28;20386;-77
2021/03/18 13:02:10;;;;;;;7.80;5.63;;;13.60;54.50;;;;;;5068142;28;20031;-76
2021/03/18 13:04:36;;;;;;;8.35;5.82;;;12.70;55.40;;;;;;5067871;28;20086;-77